sensor_id;sensor_type;location;lat;lon;timestamp;pressure;altitude;pressure_sealevel;temperature;humidity
74659;BME280;63186;51.204;6.536;2023-05-10T00:00:10;100408.38;;;12.44;100.00
74659;BME280;63186;51.204;6.536;2023-05-10T00:02:35;100403.22;;;12.42;100.00
74659;BME280;63186;51.204;6.536;2023-05-10T00:05:01;100407.75;;;12.47;100.00
74659;BME280;63186;51.204;6.536;2023-05-10T00:07:26;100404.47;;;12.45;100.00
74659;BME280;63186;51.204;6.536;2023-05-10T00:09:51;100412.13;;;12.48;100.00
74659;BME280;63186;51.204;6.536;2023-05-10T00:12:17;100412.94;;;12.48;100.00
74659;BME280;63186;51.204;6.536;2023-05-10T00:14:42;100407.75;;;12.47;100.00
74659;BME280;63186;51.204;6.536;2023-05-10T00:17:07;100410.16;;;12.48;100.00
74659;BME280;63186;51.204;6.536;2023-05-10T00:19:33;100408.56;;;12.47;100.00
74659;BME280;63186;51.204;6.536;2023-05-10T00:21:58;100408.88;;;12.46;100.00
74659;BME280;63186;51.204;6.536;2023-05-10T00:24:23;100415.88;;;12.43;100.00
74659;BME280;63186;51.204;6.536;2023-05-10T00:26:48;100411.03;;;12.40;100.00
74659;BME280;63186;51.204;6.536;2023-05-10T00:29:14;100410.06;;;12.36;100.00
74659;BME280;63186;51.204;6.536;2023-05-10T00:31:39;100411.19;;;12.35;100.00
74659;BME280;63186;51.204;6.536;2023-05-10T00:34:04;100413.50;;;12.33;100.00
74659;BME280;63186;51.204;6.536;2023-05-10T00:36:30;100407.00;;;12.29;100.00
74659;BME280;63186;51.204;6.536;2023-05-10T00:38:56;100412.06;;;12.27;100.00
74659;BME280;63186;51.204;6.536;2023-05-10T00:41:21;100418.38;;;12.28;100.00
74659;BME280;63186;51.204;6.536;2023-05-10T00:43:46;100418.72;;;12.26;100.00
74659;BME280;63186;51.204;6.536;2023-05-10T00:46:14;100415.78;;;12.22;100.00
74659;BME280;63186;51.204;6.536;2023-05-10T00:48:39;100414.19;;;12.21;100.00
74659;BME280;63186;51.204;6.536;2023-05-10T00:51:04;100418.38;;;12.19;100.00
74659;BME280;63186;51.204;6.536;2023-05-10T00:53:31;100423.09;;;12.18;100.00
74659;BME280;63186;51.204;6.536;2023-05-10T00:55:57;100427.19;;;12.12;100.00
74659;BME280;63186;51.204;6.536;2023-05-10T00:58:22;100425.91;;;12.10;100.00
74659;BME280;63186;51.204;6.536;2023-05-10T01:00:49;100422.66;;;12.08;100.00
74659;BME280;63186;51.204;6.536;2023-05-10T01:03:15;100421.69;;;12.04;100.00
74659;BME280;63186;51.204;6.536;2023-05-10T01:05:43;100408.56;;;12.01;100.00
74659;BME280;63186;51.204;6.536;2023-05-10T01:08:09;100421.06;;;11.98;100.00
74659;BME280;63186;51.204;6.536;2023-05-10T01:10:34;100424.97;;;11.97;100.00
74659;BME280;63186;51.204;6.536;2023-05-10T01:12:59;100418.63;;;11.97;100.00
74659;BME280;63186;51.204;6.536;2023-05-10T01:15:26;100417.34;;;11.94;100.00
74659;BME280;63186;51.204;6.536;2023-05-10T01:17:52;100416.53;;;11.93;100.00
74659;BME280;63186;51.204;6.536;2023-05-10T01:20:17;100413.78;;;11.93;100.00
74659;BME280;63186;51.204;6.536;2023-05-10T01:34:25;100418.97;;;11.95;100.00
74659;BME280;63186;51.204;6.536;2023-05-10T01:37:00;100420.25;;;11.98;100.00
74659;BME280;63186;51.204;6.536;2023-05-10T01:42:17;100422.66;;;11.99;100.00
74659;BME280;63186;51.204;6.536;2023-05-10T01:47:26;100418.47;;;11.93;100.00
74659;BME280;63186;51.204;6.536;2023-05-10T01:49:56;100421.56;;;11.91;100.00
74659;BME280;63186;51.204;6.536;2023-05-10T01:52:26;100410.06;;;11.89;100.00
74659;BME280;63186;51.204;6.536;2023-05-10T01:55:00;100419.94;;;11.90;100.00
74659;BME280;63186;51.204;6.536;2023-05-10T01:57:32;100421.91;;;11.90;100.00
74659;BME280;63186;51.204;6.536;2023-05-10T01:59:59;100419.47;;;11.88;100.00
74659;BME280;63186;51.204;6.536;2023-05-10T02:02:27;100430.16;;;11.90;100.00
74659;BME280;63186;51.204;6.536;2023-05-10T02:04:54;100420.75;;;11.91;100.00
74659;BME280;63186;51.204;6.536;2023-05-10T02:07:21;100422.56;;;11.87;100.00
74659;BME280;63186;51.204;6.536;2023-05-10T02:09:47;100423.38;;;11.87;100.00
74659;BME280;63186;51.204;6.536;2023-05-10T02:12:13;100407.47;;;11.84;100.00
74659;BME280;63186;51.204;6.536;2023-05-10T02:14:41;100425.63;;;11.94;100.00
74659;BME280;63186;51.204;6.536;2023-05-10T02:17:07;100424.16;;;11.97;100.00
74659;BME280;63186;51.204;6.536;2023-05-10T02:19:34;100427.38;;;11.99;100.00
74659;BME280;63186;51.204;6.536;2023-05-10T02:22:01;100430.94;;;11.99;100.00
74659;BME280;63186;51.204;6.536;2023-05-10T02:24:28;100439.22;;;11.99;100.00
74659;BME280;63186;51.204;6.536;2023-05-10T02:26:55;100428.53;;;11.98;100.00
74659;BME280;63186;51.204;6.536;2023-05-10T02:29:23;100426.91;;;11.97;100.00
74659;BME280;63186;51.204;6.536;2023-05-10T02:31:49;100432.09;;;11.98;100.00
74659;BME280;63186;51.204;6.536;2023-05-10T02:34:16;100431.16;;;11.94;100.00
74659;BME280;63186;51.204;6.536;2023-05-10T02:36:42;100430.16;;;11.90;100.00
74659;BME280;63186;51.204;6.536;2023-05-10T02:39:08;100432.28;;;11.84;100.00
74659;BME280;63186;51.204;6.536;2023-05-10T02:41:37;100435.19;;;11.79;100.00
74659;BME280;63186;51.204;6.536;2023-05-10T02:44:06;100436.31;;;11.78;100.00
74659;BME280;63186;51.204;6.536;2023-05-10T02:46:33;100435.50;;;11.78;100.00
74659;BME280;63186;51.204;6.536;2023-05-10T02:48:58;100439.56;;;11.80;100.00
74659;BME280;63186;51.204;6.536;2023-05-10T02:51:30;100441.34;;;11.76;100.00
74659;BME280;63186;51.204;6.536;2023-05-10T02:54:06;100441.53;;;11.71;100.00
74659;BME280;63186;51.204;6.536;2023-05-10T02:56:34;100435.88;;;11.67;100.00
74659;BME280;63186;51.204;6.536;2023-05-10T02:59:01;100444.44;;;11.66;100.00
74659;BME280;63186;51.204;6.536;2023-05-10T03:01:26;100434.41;;;11.61;100.00
74659;BME280;63186;51.204;6.536;2023-05-10T03:03:52;100438.44;;;11.64;100.00
74659;BME280;63186;51.204;6.536;2023-05-10T03:06:17;100439.44;;;11.68;100.00
74659;BME280;63186;51.204;6.536;2023-05-10T03:08:43;100437.94;;;11.71;100.00
74659;BME280;63186;51.204;6.536;2023-05-10T03:11:25;100441.50;;;11.80;100.00
74659;BME280;63186;51.204;6.536;2023-05-10T03:16:29;100448.34;;;11.91;100.00
74659;BME280;63186;51.204;6.536;2023-05-10T03:21:44;100452.88;;;11.95;100.00
74659;BME280;63186;51.204;6.536;2023-05-10T03:24:13;100453.81;;;12.00;100.00
74659;BME280;63186;51.204;6.536;2023-05-10T03:26:43;100459.19;;;12.05;100.00
74659;BME280;63186;51.204;6.536;2023-05-10T03:29:10;100454.16;;;12.07;100.00
74659;BME280;63186;51.204;6.536;2023-05-10T03:31:38;100454.47;;;12.05;100.00
74659;BME280;63186;51.204;6.536;2023-05-10T03:34:03;100464.84;;;12.08;100.00
74659;BME280;63186;51.204;6.536;2023-05-10T03:36:28;100466.16;;;12.11;100.00
74659;BME280;63186;51.204;6.536;2023-05-10T03:38:53;100467.28;;;12.10;100.00
74659;BME280;63186;51.204;6.536;2023-05-10T03:41:19;100463.25;;;12.07;100.00
74659;BME280;63186;51.204;6.536;2023-05-10T03:43:45;100463.56;;;12.06;100.00
74659;BME280;63186;51.204;6.536;2023-05-10T03:46:10;100479.13;;;12.10;100.00
74659;BME280;63186;51.204;6.536;2023-05-10T03:48:36;100469.72;;;12.11;100.00
74659;BME280;63186;51.204;6.536;2023-05-10T03:51:01;100466.66;;;12.13;100.00
74659;BME280;63186;51.204;6.536;2023-05-10T03:53:27;100473.28;;;12.12;100.00
74659;BME280;63186;51.204;6.536;2023-05-10T03:55:52;100466.16;;;12.11;100.00
74659;BME280;63186;51.204;6.536;2023-05-10T03:58:17;100472.16;;;12.13;100.00
74659;BME280;63186;51.204;6.536;2023-05-10T04:00:43;100474.59;;;12.14;100.00
74659;BME280;63186;51.204;6.536;2023-05-10T04:03:10;100483.34;;;12.16;100.00
74659;BME280;63186;51.204;6.536;2023-05-10T04:05:36;100479.44;;;12.17;100.00
74659;BME280;63186;51.204;6.536;2023-05-10T04:08:02;100483.81;;;12.18;100.00
74659;BME280;63186;51.204;6.536;2023-05-10T04:10:27;100473.91;;;12.17;100.00
74659;BME280;63186;51.204;6.536;2023-05-10T04:12:53;100479.09;;;12.19;100.00
74659;BME280;63186;51.204;6.536;2023-05-10T04:15:18;100488.22;;;12.19;100.00
74659;BME280;63186;51.204;6.536;2023-05-10T04:17:44;100475.53;;;12.18;100.00
74659;BME280;63186;51.204;6.536;2023-05-10T04:20:10;100487.06;;;12.20;100.00
74659;BME280;63186;51.204;6.536;2023-05-10T04:22:35;100476.03;;;12.20;100.00
74659;BME280;63186;51.204;6.536;2023-05-10T04:25:00;100480.88;;;12.23;100.00
74659;BME280;63186;51.204;6.536;2023-05-10T04:27:25;100477.31;;;12.23;100.00
74659;BME280;63186;51.204;6.536;2023-05-10T04:29:51;100486.06;;;12.25;100.00
74659;BME280;63186;51.204;6.536;2023-05-10T04:32:16;100479.75;;;12.25;100.00
74659;BME280;63186;51.204;6.536;2023-05-10T04:34:43;100471.78;;;12.23;100.00
74659;BME280;63186;51.204;6.536;2023-05-10T04:37:08;100483.31;;;12.25;100.00
74659;BME280;63186;51.204;6.536;2023-05-10T04:39:33;100476.50;;;12.22;100.00
74659;BME280;63186;51.204;6.536;2023-05-10T04:41:59;100479.75;;;12.25;100.00
74659;BME280;63186;51.204;6.536;2023-05-10T04:44:24;100468.41;;;12.26;100.00
74659;BME280;63186;51.204;6.536;2023-05-10T04:46:49;100480.72;;;12.29;100.00
74659;BME280;63186;51.204;6.536;2023-05-10T04:49:14;100481.06;;;12.27;100.00
74659;BME280;63186;51.204;6.536;2023-05-10T04:51:40;100486.22;;;12.29;100.00
74659;BME280;63186;51.204;6.536;2023-05-10T04:54:05;100484.75;;;12.31;100.00
74659;BME280;63186;51.204;6.536;2023-05-10T04:56:30;100489.13;;;12.32;100.00
74659;BME280;63186;51.204;6.536;2023-05-10T04:58:55;100490.59;;;12.30;100.00
74659;BME280;63186;51.204;6.536;2023-05-10T05:01:21;100497.28;;;12.29;100.00
74659;BME280;63186;51.204;6.536;2023-05-10T05:03:48;100505.88;;;12.27;100.00
74659;BME280;63186;51.204;6.536;2023-05-10T05:06:13;100508.94;;;12.26;100.00
74659;BME280;63186;51.204;6.536;2023-05-10T05:08:38;100507.19;;;12.21;100.00
74659;BME280;63186;51.204;6.536;2023-05-10T05:11:03;100502.31;;;12.18;100.00
74659;BME280;63186;51.204;6.536;2023-05-10T05:13:29;100509.78;;;12.17;100.00
74659;BME280;63186;51.204;6.536;2023-05-10T05:15:54;100514.03;;;12.15;100.00
74659;BME280;63186;51.204;6.536;2023-05-10T05:18:19;100515.66;;;12.16;100.00
74659;BME280;63186;51.204;6.536;2023-05-10T05:20:45;100521.97;;;12.16;100.00
74659;BME280;63186;51.204;6.536;2023-05-10T05:23:10;100521.50;;;12.14;100.00
74659;BME280;63186;51.204;6.536;2023-05-10T05:25:35;100514.66;;;12.12;100.00
74659;BME280;63186;51.204;6.536;2023-05-10T05:28:02;100515.00;;;12.10;100.00
74659;BME280;63186;51.204;6.536;2023-05-10T05:30:27;100516.47;;;12.08;100.00
74659;BME280;63186;51.204;6.536;2023-05-10T05:32:53;100519.25;;;12.08;100.00
74659;BME280;63186;51.204;6.536;2023-05-10T05:35:18;100524.09;;;12.11;100.00
74659;BME280;63186;51.204;6.536;2023-05-10T05:37:43;100532.03;;;12.12;100.00
74659;BME280;63186;51.204;6.536;2023-05-10T05:40:12;100524.91;;;12.11;100.00
74659;BME280;63186;51.204;6.536;2023-05-10T05:42:37;100527.81;;;12.15;100.00
74659;BME280;63186;51.204;6.536;2023-05-10T05:45:03;100540.16;;;12.17;100.00
74659;BME280;63186;51.204;6.536;2023-05-10T05:47:29;100537.38;;;12.17;100.00
74659;BME280;63186;51.204;6.536;2023-05-10T05:49:54;100536.09;;;12.15;100.00
74659;BME280;63186;51.204;6.536;2023-05-10T05:52:20;100538.53;;;12.16;100.00
74659;BME280;63186;51.204;6.536;2023-05-10T05:54:46;100549.56;;;12.16;100.00
74659;BME280;63186;51.204;6.536;2023-05-10T05:57:11;100546.97;;;12.20;100.00
74659;BME280;63186;51.204;6.536;2023-05-10T05:59:37;100555.25;;;12.20;100.00
74659;BME280;63186;51.204;6.536;2023-05-10T06:02:07;100547.78;;;12.20;100.00
74659;BME280;63186;51.204;6.536;2023-05-10T06:04:32;100549.41;;;12.21;100.00
74659;BME280;63186;51.204;6.536;2023-05-10T06:06:57;100543.41;;;12.19;100.00
74659;BME280;63186;51.204;6.536;2023-05-10T06:09:22;100546.16;;;12.19;100.00
74659;BME280;63186;51.204;6.536;2023-05-10T06:11:49;100555.56;;;12.27;100.00
74659;BME280;63186;51.204;6.536;2023-05-10T06:14:14;100557.19;;;12.28;100.00
74659;BME280;63186;51.204;6.536;2023-05-10T06:16:40;100558.47;;;12.31;100.00
74659;BME280;63186;51.204;6.536;2023-05-10T06:19:05;100563.50;;;12.37;100.00
74659;BME280;63186;51.204;6.536;2023-05-10T06:21:31;100567.56;;;12.40;100.00
74659;BME280;63186;51.204;6.536;2023-05-10T06:23:56;100565.44;;;12.45;100.00
74659;BME280;63186;51.204;6.536;2023-05-10T06:26:21;100569.50;;;12.48;100.00
74659;BME280;63186;51.204;6.536;2023-05-10T06:28:47;100566.22;;;12.55;100.00
74659;BME280;63186;51.204;6.536;2023-05-10T06:31:12;100569.94;;;12.67;100.00
74659;BME280;63186;51.204;6.536;2023-05-10T06:33:37;100570.06;;;12.80;100.00
74659;BME280;63186;51.204;6.536;2023-05-10T06:36:03;100581.34;;;12.95;100.00
74659;BME280;63186;51.204;6.536;2023-05-10T06:38:28;100571.41;;;13.03;100.00
74659;BME280;63186;51.204;6.536;2023-05-10T06:40:54;100573.78;;;13.22;100.00
74659;BME280;63186;51.204;6.536;2023-05-10T06:43:19;100573.88;;;13.34;100.00
74659;BME280;63186;51.204;6.536;2023-05-10T06:45:44;100580.22;;;13.35;100.00
74659;BME280;63186;51.204;6.536;2023-05-10T06:48:10;100584.81;;;13.30;100.00
74659;BME280;63186;51.204;6.536;2023-05-10T06:50:35;100589.56;;;13.21;100.00
74659;BME280;63186;51.204;6.536;2023-05-10T06:53:01;100590.06;;;13.15;100.00
74659;BME280;63186;51.204;6.536;2023-05-10T06:55:29;100592.19;;;13.09;100.00
74659;BME280;63186;51.204;6.536;2023-05-10T06:57:54;100594.38;;;12.95;100.00
74659;BME280;63186;51.204;6.536;2023-05-10T07:00:20;100593.25;;;12.87;100.00
74659;BME280;63186;51.204;6.536;2023-05-10T07:02:46;100595.38;;;12.82;100.00
74659;BME280;63186;51.204;6.536;2023-05-10T07:05:12;100599.13;;;12.86;100.00
74659;BME280;63186;51.204;6.536;2023-05-10T07:07:37;100597.97;;;12.87;100.00
74659;BME280;63186;51.204;6.536;2023-05-10T07:10:03;100611.78;;;12.87;100.00
74659;BME280;63186;51.204;6.536;2023-05-10T07:12:28;100597.47;;;12.93;100.00
74659;BME280;63186;51.204;6.536;2023-05-10T07:14:53;100600.19;;;13.02;100.00
74659;BME280;63186;51.204;6.536;2023-05-10T07:17:19;100602.31;;;13.05;100.00
74659;BME280;63186;51.204;6.536;2023-05-10T07:19:44;100609.41;;;13.15;100.00
74659;BME280;63186;51.204;6.536;2023-05-10T07:22:09;100612.81;;;13.20;100.00
74659;BME280;63186;51.204;6.536;2023-05-10T07:24:35;100614.75;;;13.20;100.00
74659;BME280;63186;51.204;6.536;2023-05-10T07:27:00;100625.31;;;13.26;100.00
74659;BME280;63186;51.204;6.536;2023-05-10T07:29:26;100616.97;;;13.35;100.00
74659;BME280;63186;51.204;6.536;2023-05-10T07:31:51;100611.72;;;13.42;100.00
74659;BME280;63186;51.204;6.536;2023-05-10T07:34:16;100611.72;;;13.42;100.00
74659;BME280;63186;51.204;6.536;2023-05-10T07:36:42;100607.34;;;13.41;100.00
74659;BME280;63186;51.204;6.536;2023-05-10T07:39:07;100617.78;;;13.36;100.00
74659;BME280;63186;51.204;6.536;2023-05-10T07:41:32;100617.59;;;13.41;100.00
74659;BME280;63186;51.204;6.536;2023-05-10T07:43:58;100612.84;;;13.50;100.00
74659;BME280;63186;51.204;6.536;2023-05-10T07:46:23;100625.63;;;13.63;100.00
74659;BME280;63186;51.204;6.536;2023-05-10T07:48:48;100621.47;;;13.78;100.00
74659;BME280;63186;51.204;6.536;2023-05-10T07:51:14;100619.44;;;13.87;100.00
74659;BME280;63186;51.204;6.536;2023-05-10T07:53:39;100619.16;;;13.80;100.00
74659;BME280;63186;51.204;6.536;2023-05-10T07:56:40;100620.50;;;13.74;100.00
74659;BME280;63186;51.204;6.536;2023-05-10T07:59:09;100635.19;;;13.66;100.00
74659;BME280;63186;51.204;6.536;2023-05-10T08:01:35;100638.16;;;13.61;100.00
74659;BME280;63186;51.204;6.536;2023-05-10T08:04:01;100630.84;;;13.56;100.00
74659;BME280;63186;51.204;6.536;2023-05-10T08:06:27;100625.47;;;13.60;100.00
74659;BME280;63186;51.204;6.536;2023-05-10T08:08:53;100626.72;;;13.71;100.00
74659;BME280;63186;51.204;6.536;2023-05-10T08:11:19;100632.34;;;13.83;100.00
74659;BME280;63186;51.204;6.536;2023-05-10T08:13:46;100641.22;;;13.89;100.00
74659;BME280;63186;51.204;6.536;2023-05-10T08:16:12;100645.75;;;13.93;100.00
74659;BME280;63186;51.204;6.536;2023-05-10T08:18:38;100642.47;;;14.00;100.00
74659;BME280;63186;51.204;6.536;2023-05-10T08:21:03;100653.19;;;14.01;99.69
74659;BME280;63186;51.204;6.536;2023-05-10T08:23:28;100655.50;;;14.20;99.64
74659;BME280;63186;51.204;6.536;2023-05-10T08:25:54;100652.25;;;14.39;99.04
74659;BME280;63186;51.204;6.536;2023-05-10T08:28:19;100651.44;;;14.59;98.15
74659;BME280;63186;51.204;6.536;2023-05-10T08:30:44;100656.53;;;15.03;96.47
74659;BME280;63186;51.204;6.536;2023-05-10T08:33:10;100655.66;;;15.35;94.61
74659;BME280;63186;51.204;6.536;2023-05-10T08:35:35;100664.91;;;16.00;91.67
74659;BME280;63186;51.204;6.536;2023-05-10T08:38:01;100660.41;;;16.76;87.79
74659;BME280;63186;51.204;6.536;2023-05-10T08:40:26;100660.41;;;16.76;87.67
74659;BME280;63186;51.204;6.536;2023-05-10T08:43:04;100662.50;;;16.39;84.48
74659;BME280;63186;51.204;6.536;2023-05-10T08:45:32;100669.81;;;15.67;87.23
74659;BME280;63186;51.204;6.536;2023-05-10T08:48:00;100664.63;;;15.08;92.63
74659;BME280;63186;51.204;6.536;2023-05-10T08:50:26;100666.22;;;14.63;92.50
74659;BME280;63186;51.204;6.536;2023-05-10T08:52:53;100669.66;;;14.39;96.44
74659;BME280;63186;51.204;6.536;2023-05-10T08:55:20;100675.13;;;14.27;92.43
74659;BME280;63186;51.204;6.536;2023-05-10T08:57:46;100683.06;;;14.17;94.66
74659;BME280;63186;51.204;6.536;2023-05-10T09:00:13;100684.59;;;14.05;94.14
74659;BME280;63186;51.204;6.536;2023-05-10T09:02:39;100682.63;;;14.06;95.81
74659;BME280;63186;51.204;6.536;2023-05-10T09:05:04;100694.88;;;14.26;96.30
74659;BME280;63186;51.204;6.536;2023-05-10T09:07:30;100698.59;;;14.51;93.99
74659;BME280;63186;51.204;6.536;2023-05-10T09:09:56;100699.09;;;14.86;94.84
74659;BME280;63186;51.204;6.536;2023-05-10T09:12:22;100702.66;;;15.07;90.41
74659;BME280;63186;51.204;6.536;2023-05-10T09:14:49;100704.59;;;15.07;92.42
74659;BME280;63186;51.204;6.536;2023-05-10T09:17:15;100713.56;;;14.91;88.83
74659;BME280;63186;51.204;6.536;2023-05-10T09:19:41;100710.91;;;14.95;90.03
74659;BME280;63186;51.204;6.536;2023-05-10T09:22:06;100701.84;;;15.07;91.01
74659;BME280;63186;51.204;6.536;2023-05-10T09:24:32;100711.41;;;15.09;91.13
74659;BME280;63186;51.204;6.536;2023-05-10T09:26:57;100719.13;;;15.04;90.94
74659;BME280;63186;51.204;6.536;2023-05-10T09:29:26;100714.16;;;14.97;91.62
74659;BME280;63186;51.204;6.536;2023-05-10T09:31:51;100713.91;;;14.90;92.25
74659;BME280;63186;51.204;6.536;2023-05-10T09:34:31;100711.78;;;14.75;92.79
74659;BME280;63186;51.204;6.536;2023-05-10T09:37:01;100721.72;;;14.55;92.83
74659;BME280;63186;51.204;6.536;2023-05-10T09:39:32;100725.28;;;14.34;93.16
74659;BME280;63186;51.204;6.536;2023-05-10T09:41:58;100724.59;;;14.17;93.17
74659;BME280;63186;51.204;6.536;2023-05-10T09:44:25;100723.34;;;14.05;94.50
74659;BME280;63186;51.204;6.536;2023-05-10T09:46:51;100725.22;;;13.93;93.15
74659;BME280;63186;51.204;6.536;2023-05-10T09:49:18;100721.09;;;13.99;94.43
74659;BME280;63186;51.204;6.536;2023-05-10T09:51:43;100723.16;;;14.10;95.26
74659;BME280;63186;51.204;6.536;2023-05-10T09:54:10;100726.13;;;14.26;93.45
74659;BME280;63186;51.204;6.536;2023-05-10T09:56:36;100724.16;;;14.56;93.20
74659;BME280;63186;51.204;6.536;2023-05-10T09:59:04;100726.78;;;14.74;90.16
74659;BME280;63186;51.204;6.536;2023-05-10T10:01:30;100721.25;;;15.07;91.14
74659;BME280;63186;51.204;6.536;2023-05-10T10:03:56;100734.50;;;15.46;90.37
74659;BME280;63186;51.204;6.536;2023-05-10T10:06:22;100722.19;;;15.81;87.40
74659;BME280;63186;51.204;6.536;2023-05-10T10:08:48;100721.81;;;16.07;83.80
74659;BME280;63186;51.204;6.536;2023-05-10T10:11:13;100730.13;;;16.19;85.33
74659;BME280;63186;51.204;6.536;2023-05-10T10:13:39;100732.91;;;16.19;85.05
74659;BME280;63186;51.204;6.536;2023-05-10T10:16:04;100733.03;;;16.10;86.56
74659;BME280;63186;51.204;6.536;2023-05-10T10:18:30;100722.84;;;15.78;83.89
74659;BME280;63186;51.204;6.536;2023-05-10T10:20:56;100730.34;;;15.53;86.57
74659;BME280;63186;51.204;6.536;2023-05-10T10:23:21;100732.84;;;15.33;88.49
74659;BME280;63186;51.204;6.536;2023-05-10T10:25:47;100731.78;;;15.13;87.51
74659;BME280;63186;51.204;6.536;2023-05-10T10:28:26;100736.53;;;14.92;89.22
74659;BME280;63186;51.204;6.536;2023-05-10T10:30:56;100738.59;;;14.83;91.27
74659;BME280;63186;51.204;6.536;2023-05-10T10:33:36;100739.75;;;14.61;91.51
74659;BME280;63186;51.204;6.536;2023-05-10T10:36:05;100742.63;;;14.44;91.93
74659;BME280;63186;51.204;6.536;2023-05-10T10:41:27;100741.91;;;14.34;92.55
74659;BME280;63186;51.204;6.536;2023-05-10T10:44:28;100742.28;;;14.45;92.02
74659;BME280;63186;51.204;6.536;2023-05-10T10:57:24;100749.00;;;15.31;87.29
74659;BME280;63186;51.204;6.536;2023-05-10T10:59:51;100742.66;;;15.31;86.87
74659;BME280;63186;51.204;6.536;2023-05-10T11:02:33;100751.72;;;15.40;87.24
74659;BME280;63186;51.204;6.536;2023-05-10T11:04:59;100749.16;;;15.35;86.80
74659;BME280;63186;51.204;6.536;2023-05-10T11:07:24;100751.13;;;15.34;86.77
74659;BME280;63186;51.204;6.536;2023-05-10T11:09:50;100746.28;;;15.43;88.44
74659;BME280;63186;51.204;6.536;2023-05-10T11:12:15;100759.75;;;15.66;88.03
74659;BME280;63186;51.204;6.536;2023-05-10T11:14:40;100757.09;;;15.69;85.42
74659;BME280;63186;51.204;6.536;2023-05-10T11:17:26;100761.53;;;15.50;84.56
74659;BME280;63186;51.204;6.536;2023-05-10T11:20:11;100759.19;;;15.27;86.28
74659;BME280;63186;51.204;6.536;2023-05-10T11:23:11;100761.63;;;15.29;87.45
74659;BME280;63186;51.204;6.536;2023-05-10T11:25:42;100768.94;;;15.45;88.02
74659;BME280;63186;51.204;6.536;2023-05-10T11:28:08;100761.78;;;15.57;87.65
74659;BME280;63186;51.204;6.536;2023-05-10T11:30:33;100766.13;;;15.66;86.53
74659;BME280;63186;51.204;6.536;2023-05-10T11:32:58;100762.19;;;15.67;85.89
74659;BME280;63186;51.204;6.536;2023-05-10T11:35:24;100764.63;;;15.81;83.48
74659;BME280;63186;51.204;6.536;2023-05-10T11:37:49;100770.50;;;15.67;84.22
74659;BME280;63186;51.204;6.536;2023-05-10T11:40:14;100760.38;;;15.51;86.19
74659;BME280;63186;51.204;6.536;2023-05-10T11:42:40;100764.44;;;15.41;86.49
74659;BME280;63186;51.204;6.536;2023-05-10T11:45:05;100771.75;;;15.25;86.90
74659;BME280;63186;51.204;6.536;2023-05-10T11:47:31;100769.91;;;15.16;87.25
74659;BME280;63186;51.204;6.536;2023-05-10T11:49:57;100768.13;;;15.12;85.87
74659;BME280;63186;51.204;6.536;2023-05-10T11:52:23;100775.78;;;15.15;86.53
74659;BME280;63186;51.204;6.536;2023-05-10T11:54:52;100774.69;;;15.28;83.90
74659;BME280;63186;51.204;6.536;2023-05-10T11:57:19;100771.59;;;15.42;84.00
74659;BME280;63186;51.204;6.536;2023-05-10T11:59:49;100768.50;;;15.56;83.60
74659;BME280;63186;51.204;6.536;2023-05-10T12:02:17;100772.25;;;15.72;84.15
74659;BME280;63186;51.204;6.536;2023-05-10T12:04:43;100779.44;;;15.97;83.36
74659;BME280;63186;51.204;6.536;2023-05-10T12:07:08;100771.81;;;15.94;79.13
74659;BME280;63186;51.204;6.536;2023-05-10T12:09:34;100768.91;;;15.91;82.22
74659;BME280;63186;51.204;6.536;2023-05-10T12:11:59;100775.38;;;15.95;82.19
74659;BME280;63186;51.204;6.536;2023-05-10T12:14:25;100780.13;;;15.82;79.75
74659;BME280;63186;51.204;6.536;2023-05-10T12:16:51;100775.72;;;15.69;81.69
74659;BME280;63186;51.204;6.536;2023-05-10T12:19:19;100783.00;;;15.73;83.26
74659;BME280;63186;51.204;6.536;2023-05-10T12:21:48;100782.06;;;15.69;83.13
74659;BME280;63186;51.204;6.536;2023-05-10T12:24:13;100781.63;;;15.80;83.42
74659;BME280;63186;51.204;6.536;2023-05-10T12:26:42;100776.09;;;15.92;81.58
74659;BME280;63186;51.204;6.536;2023-05-10T12:29:18;100783.59;;;16.04;80.94
74659;BME280;63186;51.204;6.536;2023-05-10T12:31:57;100782.78;;;16.15;79.96
74659;BME280;63186;51.204;6.536;2023-05-10T12:34:33;100778.47;;;16.42;79.11
74659;BME280;63186;51.204;6.536;2023-05-10T12:37:00;100775.66;;;16.54;81.36
74659;BME280;63186;51.204;6.536;2023-05-10T12:39:26;100779.47;;;16.74;80.78
74659;BME280;63186;51.204;6.536;2023-05-10T12:41:52;100772.78;;;16.63;78.01
74659;BME280;63186;51.204;6.536;2023-05-10T12:44:17;100772.41;;;16.65;81.57
74659;BME280;63186;51.204;6.536;2023-05-10T12:46:43;100776.81;;;16.78;81.57
74659;BME280;63186;51.204;6.536;2023-05-10T12:49:08;100783.63;;;16.80;81.83
74659;BME280;63186;51.204;6.536;2023-05-10T12:51:33;100775.91;;;17.02;81.08
74659;BME280;63186;51.204;6.536;2023-05-10T12:53:59;100780.94;;;17.12;81.59
74659;BME280;63186;51.204;6.536;2023-05-10T12:56:24;100788.69;;;17.19;80.58
74659;BME280;63186;51.204;6.536;2023-05-10T12:58:50;100784.59;;;17.00;80.22
74659;BME280;63186;51.204;6.536;2023-05-10T13:01:16;100791.34;;;16.87;79.80
74659;BME280;63186;51.204;6.536;2023-05-10T13:03:41;100789.78;;;16.74;79.53
74659;BME280;63186;51.204;6.536;2023-05-10T13:06:08;100791.88;;;16.77;81.53
74659;BME280;63186;51.204;6.536;2023-05-10T13:08:33;100789.88;;;16.90;80.66
74659;BME280;63186;51.204;6.536;2023-05-10T13:11:00;100790.06;;;16.97;80.44
74659;BME280;63186;51.204;6.536;2023-05-10T13:13:25;100794.91;;;17.00;80.19
74659;BME280;63186;51.204;6.536;2023-05-10T13:15:51;100802.28;;;17.08;79.48